createdAt,value
2022-07-27T00:02:03.520Z,16.00
2022-07-27T00:07:06.308Z,15.93
2022-07-27T00:12:09.138Z,15.20
2022-07-27T00:17:11.781Z,15.23
2022-07-27T00:22:14.537Z,16.20
2022-07-27T00:27:17.283Z,16.80
2022-07-27T00:32:20.512Z,17.25
2022-07-27T00:37:23.144Z,16.33
2022-07-27T00:42:28.438Z,16.85
2022-07-27T00:47:31.242Z,17.58
2022-07-27T00:52:34.637Z,18.48
2022-07-27T00:57:58.533Z,17.73
2022-07-27T01:03:02.579Z,16.35
2022-07-27T01:08:14.458Z,14.85
2022-07-27T01:13:17.480Z,15.48
2022-07-27T01:18:32.252Z,15.07
2022-07-27T01:23:35.351Z,15.63
2022-07-27T01:28:38.005Z,19.10
2022-07-27T01:33:40.663Z,19.55
2022-07-27T01:38:43.720Z,17.67
2022-07-27T01:43:46.513Z,19.90
2022-07-27T01:48:49.363Z,19.67
2022-07-27T01:53:52.196Z,16.95
2022-07-27T01:58:55.468Z,17.88
2022-07-27T02:03:58.183Z,17.58
2022-07-27T02:09:01.693Z,15.70
2022-07-27T02:14:04.572Z,13.40
2022-07-27T02:19:07.253Z,13.90
2022-07-27T02:24:11.837Z,12.52
2022-07-27T02:29:14.836Z,12.60
2022-07-27T02:34:17.658Z,12.93
2022-07-27T02:39:20.437Z,11.93
2022-07-27T02:44:23.662Z,11.05
2022-07-27T02:49:26.509Z,11.23
2022-07-27T02:54:31.801Z,10.50
2022-07-27T02:59:34.568Z,10.68
2022-07-27T03:04:37.423Z,10.48
2022-07-27T03:09:40.306Z,10.88
2022-07-27T03:14:42.945Z,11.18
2022-07-27T03:19:45.597Z,11.25
2022-07-27T03:24:48.329Z,11.70
2022-07-27T03:29:51.217Z,11.82
2022-07-27T03:34:53.881Z,12.88
2022-07-27T03:39:56.712Z,12.45
2022-07-27T03:44:59.387Z,13.23
2022-07-27T03:50:02.422Z,14.18
2022-07-27T03:55:07.525Z,13.85
2022-07-27T04:00:14.256Z,13.80
2022-07-27T04:05:17.001Z,15.88
2022-07-27T04:10:19.826Z,16.92
2022-07-27T04:15:25.609Z,17.67
2022-07-27T04:20:28.333Z,18.90
2022-07-27T04:25:31.169Z,18.27
2022-07-27T04:30:33.970Z,18.10
2022-07-27T04:35:36.751Z,18.15
2022-07-27T04:40:39.491Z,19.25
2022-07-27T04:45:42.539Z,17.98
2022-07-27T04:50:47.443Z,17.55
2022-07-27T04:55:50.289Z,18.23
2022-07-27T05:00:53.258Z,17.13
2022-07-27T05:05:56.153Z,18.45
2022-07-27T05:10:59.175Z,19.13
2022-07-27T05:16:01.903Z,19.13
2022-07-27T05:21:05.328Z,18.73
2022-07-27T05:26:08.081Z,18.38
2022-07-27T05:31:10.767Z,18.70
2022-07-27T05:36:13.945Z,20.52
2022-07-27T05:41:26.297Z,17.70
2022-07-27T05:46:32.646Z,17.67
2022-07-27T05:51:35.756Z,21.83
2022-07-27T05:56:38.779Z,19.98
2022-07-27T06:01:41.566Z,17.55
2022-07-27T06:07:03.014Z,18.65
2022-07-27T06:12:06.013Z,15.82
2022-07-27T06:17:09.496Z,15.25
2022-07-27T06:22:13.650Z,16.42
2022-07-27T06:27:16.586Z,16.35
2022-07-27T06:32:19.383Z,16.48
2022-07-27T06:37:22.452Z,14.57
2022-07-27T06:42:25.336Z,13.80
2022-07-27T06:47:28.961Z,15.25
2022-07-27T06:52:31.792Z,15.35
2022-07-27T06:57:34.472Z,16.02
2022-07-27T07:02:37.285Z,15.45
2022-07-27T07:07:40.388Z,14.90
2022-07-27T07:12:43.312Z,13.68
2022-07-27T07:17:45.963Z,13.13
2022-07-27T07:22:48.617Z,13.55
2022-07-27T07:27:52.162Z,13.43
2022-07-27T07:32:55.260Z,14.52
2022-07-27T07:37:57.886Z,15.32
2022-07-27T07:43:03.161Z,14.15
2022-07-27T07:48:07.390Z,14.98
2022-07-27T07:53:11.426Z,15.18
2022-07-27T07:58:17.310Z,16.40
2022-07-27T08:03:20.189Z,14.55
2022-07-27T08:08:24.936Z,15.65
2022-07-27T08:13:27.896Z,15.13
2022-07-27T08:18:30.617Z,13.73
2022-07-27T08:23:33.319Z,14.50
2022-07-27T08:28:37.151Z,15.77
2022-07-27T08:33:40.927Z,14.32
2022-07-27T08:38:43.686Z,14.23
2022-07-27T08:43:48.752Z,13.70
2022-07-27T08:48:52.096Z,16.25
2022-07-27T08:53:56.294Z,13.88
2022-07-27T08:58:58.987Z,14.38
2022-07-27T09:04:02.003Z,16.48
2022-07-27T09:09:04.742Z,16.13
2022-07-27T09:14:12.494Z,15.88
2022-07-27T09:19:16.705Z,17.40
2022-07-27T09:24:46.963Z,15.10
2022-07-27T09:29:42.299Z,11.68
2022-07-27T09:34:45.120Z,14.02
2022-07-27T09:39:48.504Z,13.98
2022-07-27T09:44:54.839Z,14.02
2022-07-27T09:50:17.717Z,13.52
2022-07-27T09:55:21.308Z,13.30
2022-07-27T10:00:25.606Z,12.55
2022-07-27T10:05:29.108Z,12.23
2022-07-27T10:10:31.893Z,13.25
2022-07-27T10:15:34.687Z,13.65
2022-07-27T10:20:39.679Z,14.35
2022-07-27T10:25:44.113Z,13.27
2022-07-27T10:30:53.623Z,12.60
2022-07-27T10:35:57.103Z,13.35
2022-07-27T10:41:21.937Z,13.20
2022-07-27T10:46:24.590Z,13.63
2022-07-27T10:51:36.702Z,14.02
2022-07-27T10:56:50.401Z,14.40
2022-07-27T11:02:02.094Z,13.95
2022-07-27T11:12:31.161Z,16.20
2022-07-27T11:23:48.669Z,15.10
2022-07-27T11:28:29.086Z,16.83
2022-07-27T11:33:32.478Z,14.65
2022-07-27T11:38:53.000Z,15.20
2022-07-27T11:44:01.212Z,14.18
2022-07-27T11:49:09.046Z,14.90
2022-07-27T11:54:22.453Z,14.98
2022-07-27T11:59:31.883Z,14.23
2022-07-27T12:04:40.197Z,15.10
2022-07-27T12:09:58.080Z,14.82
2022-07-27T12:15:42.793Z,15.35
2022-07-27T12:20:37.886Z,14.25
2022-07-27T12:25:41.417Z,14.82
2022-07-27T12:30:49.484Z,14.27
2022-07-27T12:35:52.302Z,16.17
2022-07-27T12:41:00.525Z,18.73
2022-07-27T12:46:14.197Z,17.42
2022-07-27T12:51:23.989Z,17.23
2022-07-27T12:56:27.408Z,16.23
2022-07-27T13:01:30.933Z,16.00
2022-07-27T13:06:33.863Z,18.25
2022-07-27T13:11:36.501Z,18.23
2022-07-27T13:16:39.334Z,18.25
2022-07-27T13:21:42.079Z,17.20
2022-07-27T13:26:44.678Z,18.92
2022-07-27T13:31:52.440Z,18.85
2022-07-27T13:36:57.735Z,16.15
2022-07-27T13:42:00.552Z,16.08
2022-07-27T13:47:03.839Z,16.92
2022-07-27T13:52:06.985Z,16.40
2022-07-27T13:57:09.665Z,15.52
2022-07-27T14:02:12.404Z,14.82
2022-07-27T14:07:15.676Z,15.60
2022-07-27T14:12:18.323Z,15.35
2022-07-27T14:17:21.092Z,15.98
2022-07-27T14:22:23.750Z,17.08
2022-07-27T14:27:26.390Z,16.10
2022-07-27T14:32:38.905Z,16.95
2022-07-27T14:37:41.637Z,15.18
2022-07-27T14:42:44.360Z,15.73
2022-07-27T14:47:47.797Z,16.70
2022-07-27T14:52:50.910Z,16.42
2022-07-27T14:57:53.969Z,16.38
2022-07-27T15:02:56.667Z,15.82
2022-07-27T15:08:00.490Z,14.18
2022-07-27T15:13:05.104Z,16.17
2022-07-27T15:18:08.108Z,15.75
2022-07-27T15:23:10.956Z,16.23
2022-07-27T15:28:13.652Z,16.20
2022-07-27T15:33:16.466Z,16.00
2022-07-27T15:38:19.344Z,15.27
2022-07-27T15:43:22.040Z,15.68
2022-07-27T15:48:26.260Z,15.32
2022-07-27T15:53:29.934Z,15.27
2022-07-27T15:58:32.665Z,14.50
2022-07-27T16:03:35.470Z,15.10
2022-07-27T16:08:39.169Z,14.32
2022-07-27T16:13:42.288Z,14.55
2022-07-27T16:18:46.845Z,13.43
2022-07-27T16:23:50.951Z,11.98
2022-07-27T16:28:57.101Z,12.35
2022-07-27T16:33:59.956Z,12.40
2022-07-27T16:39:02.744Z,11.95
2022-07-27T16:44:05.738Z,12.57
2022-07-27T16:49:09.148Z,12.07
2022-07-27T16:54:15.790Z,12.27
2022-07-27T16:59:20.846Z,11.80
2022-07-27T17:04:24.845Z,11.05
2022-07-27T17:09:28.710Z,11.45
2022-07-27T17:14:31.455Z,11.90
2022-07-27T17:19:35.294Z,13.07
2022-07-27T17:24:38.412Z,11.88
2022-07-27T17:29:41.457Z,12.55
2022-07-27T17:34:47.678Z,11.80
2022-07-27T17:39:50.671Z,11.02
2022-07-27T17:44:53.760Z,11.85
2022-07-27T17:49:58.080Z,12.10
2022-07-27T17:55:01.860Z,11.85
2022-07-27T18:00:07.788Z,10.85
2022-07-27T18:05:12.886Z,12.75
2022-07-27T18:10:16.852Z,12.93
2022-07-27T18:15:38.264Z,12.30
2022-07-27T18:20:41.696Z,11.85
2022-07-27T18:25:45.254Z,12.45
2022-07-27T18:30:50.128Z,23.08
2022-07-27T18:35:54.055Z,12.85
2022-07-27T18:40:59.954Z,14.23
2022-07-27T18:46:03.177Z,14.45
2022-07-27T18:51:05.910Z,14.63
2022-07-27T18:56:08.576Z,13.95
2022-07-27T19:01:11.649Z,14.65
2022-07-27T19:06:17.856Z,13.63
2022-07-27T19:11:21.780Z,11.90
2022-07-27T19:16:25.579Z,12.82
2022-07-27T19:21:28.469Z,13.73
2022-07-27T19:26:31.228Z,13.13
2022-07-27T19:31:34.404Z,13.40
2022-07-27T19:36:37.449Z,11.73
2022-07-27T19:41:40.356Z,13.13
2022-07-27T19:46:43.489Z,12.60
2022-07-27T19:51:46.274Z,16.27
2022-07-27T19:56:49.016Z,13.40
2022-07-27T20:01:51.791Z,13.30
2022-07-27T20:06:54.536Z,12.88
2022-07-27T20:12:00.461Z,16.60
2022-07-27T20:17:04.296Z,11.80
2022-07-27T20:22:07.097Z,12.82
2022-07-27T20:27:10.307Z,12.55
2022-07-27T20:32:14.777Z,18.50
2022-07-27T20:37:17.490Z,12.43
2022-07-27T20:42:20.183Z,11.77
2022-07-27T20:47:22.893Z,13.02
2022-07-27T20:52:26.116Z,16.35
2022-07-27T20:57:29.063Z,14.35
2022-07-27T21:02:32.305Z,12.82
2022-07-27T21:07:35.061Z,13.13
2022-07-27T21:12:37.830Z,12.55
2022-07-27T21:17:40.931Z,12.93
2022-07-27T21:22:43.688Z,10.75
2022-07-27T21:27:46.489Z,10.18
2022-07-27T21:32:50.926Z,10.63
2022-07-27T21:37:53.566Z,10.98
2022-07-27T21:42:56.312Z,10.73
2022-07-27T21:47:58.966Z,10.23
2022-07-27T21:53:01.582Z,9.32
2022-07-27T21:58:04.870Z,9.75
2022-07-27T22:03:08.699Z,8.70
2022-07-27T22:08:11.441Z,8.63
2022-07-27T22:13:14.121Z,9.20
2022-07-27T22:18:17.786Z,9.27
2022-07-27T22:23:20.623Z,8.50
2022-07-27T22:28:25.457Z,8.43
2022-07-27T22:33:29.235Z,9.05
2022-07-27T22:38:31.921Z,8.30
2022-07-27T22:43:34.698Z,9.63
2022-07-27T22:48:37.410Z,9.68
2022-07-27T22:53:40.155Z,9.52
2022-07-27T22:58:42.873Z,9.90
2022-07-27T23:03:45.470Z,10.60
2022-07-27T23:08:48.202Z,9.75
2022-07-27T23:13:50.917Z,9.95
2022-07-27T23:18:53.614Z,9.75
2022-07-27T23:23:56.745Z,9.50
2022-07-27T23:29:01.858Z,9.90
2022-07-27T23:34:04.519Z,11.00
2022-07-27T23:39:07.322Z,11.13
2022-07-27T23:44:10.456Z,10.10
2022-07-27T23:49:13.667Z,10.02
2022-07-27T23:54:16.595Z,10.60
2022-07-27T23:59:19.802Z,12.27
